sensor_id;sensor_type;location;lat;lon;timestamp;pressure;altitude;pressure_sealevel;temperature;humidity
75008;BME280;63554;48.940;12.050;2023-08-21T00:01:52;97832.88;;;20.77;81.85
75008;BME280;63554;48.940;12.050;2023-08-21T00:05:55;97825.16;;;20.73;81.90
75008;BME280;63554;48.940;12.050;2023-08-21T00:09:57;97829.56;;;20.85;82.12
75008;BME280;63554;48.940;12.050;2023-08-21T00:14:02;97817.47;;;20.91;81.65
75008;BME280;63554;48.940;12.050;2023-08-21T00:18:05;97820.50;;;21.00;81.59
75008;BME280;63554;48.940;12.050;2023-08-21T00:22:07;97825.16;;;21.04;80.76
75008;BME280;63554;48.940;12.050;2023-08-21T00:26:10;97828.75;;;21.10;80.87
75008;BME280;63554;48.940;12.050;2023-08-21T00:30:14;97830.94;;;21.03;81.27
75008;BME280;63554;48.940;12.050;2023-08-21T00:34:17;97826.25;;;20.78;82.76
75008;BME280;63554;48.940;12.050;2023-08-21T00:38:20;97825.41;;;20.62;85.86
75008;BME280;63554;48.940;12.050;2023-08-21T00:42:22;97825.94;;;20.53;86.81
75008;BME280;63554;48.940;12.050;2023-08-21T00:46:26;97829.22;;;20.55;87.29
75008;BME280;63554;48.940;12.050;2023-08-21T00:50:29;97815.47;;;20.55;88.05
75008;BME280;63554;48.940;12.050;2023-08-21T00:54:32;97813.53;;;20.56;88.22
75008;BME280;63554;48.940;12.050;2023-08-21T00:58:35;97815.78;;;20.59;87.28
75008;BME280;63554;48.940;12.050;2023-08-21T01:02:39;97820.97;;;20.55;85.59
75008;BME280;63554;48.940;12.050;2023-08-21T01:06:46;97811.66;;;20.57;86.45
75008;BME280;63554;48.940;12.050;2023-08-21T01:10:53;97815.78;;;20.59;86.75
75008;BME280;63554;48.940;12.050;2023-08-21T01:14:59;97824.28;;;20.52;84.33
75008;BME280;63554;48.940;12.050;2023-08-21T01:19:09;97836.91;;;20.38;83.96
75008;BME280;63554;48.940;12.050;2023-08-21T01:23:27;97840.47;;;20.33;85.00
75008;BME280;63554;48.940;12.050;2023-08-21T01:27:30;97833.03;;;20.29;84.95
75008;BME280;63554;48.940;12.050;2023-08-21T01:31:35;97842.94;;;20.25;84.97
75008;BME280;63554;48.940;12.050;2023-08-21T01:35:40;97838.78;;;20.22;85.25
75008;BME280;63554;48.940;12.050;2023-08-21T01:39:44;97842.63;;;20.21;85.53
75008;BME280;63554;48.940;12.050;2023-08-21T01:43:48;97853.63;;;20.26;85.55
75008;BME280;63554;48.940;12.050;2023-08-21T01:47:50;97858.56;;;20.24;85.75
75008;BME280;63554;48.940;12.050;2023-08-21T01:51:53;97863.53;;;20.17;85.67
75008;BME280;63554;48.940;12.050;2023-08-21T01:55:57;97860.44;;;20.08;85.38
75008;BME280;63554;48.940;12.050;2023-08-21T02:00:00;97854.66;;;20.00;86.58
75008;BME280;63554;48.940;12.050;2023-08-21T02:04:04;97851.88;;;19.94;87.97
75008;BME280;63554;48.940;12.050;2023-08-21T02:08:09;97843.91;;;19.93;88.08
75008;BME280;63554;48.940;12.050;2023-08-21T02:12:13;97843.34;;;19.91;88.41
75008;BME280;63554;48.940;12.050;2023-08-21T02:16:16;97834.00;;;19.92;89.40
75008;BME280;63554;48.940;12.050;2023-08-21T02:20:19;97847.19;;;19.95;89.72
75008;BME280;63554;48.940;12.050;2023-08-21T02:24:21;97838.97;;;19.95;89.63
75008;BME280;63554;48.940;12.050;2023-08-21T02:28:25;97847.19;;;19.95;89.85
75008;BME280;63554;48.940;12.050;2023-08-21T02:32:28;97836.75;;;19.92;90.30
75008;BME280;63554;48.940;12.050;2023-08-21T02:36:32;97847.19;;;19.95;90.78
75008;BME280;63554;48.940;12.050;2023-08-21T02:40:35;97839.25;;;19.93;90.51
75008;BME280;63554;48.940;12.050;2023-08-21T02:44:39;97849.38;;;19.93;92.89
75008;BME280;63554;48.940;12.050;2023-08-21T02:48:42;97853.50;;;19.90;92.56
75008;BME280;63554;48.940;12.050;2023-08-21T02:52:44;97846.34;;;19.89;91.90
75008;BME280;63554;48.940;12.050;2023-08-21T02:56:47;97849.94;;;19.95;91.99
75008;BME280;63554;48.940;12.050;2023-08-21T03:00:51;97838.97;;;19.95;92.03
75008;BME280;63554;48.940;12.050;2023-08-21T03:04:54;97841.19;;;19.98;92.30
75008;BME280;63554;48.940;12.050;2023-08-21T03:08:57;97847.50;;;19.93;94.06
75008;BME280;63554;48.940;12.050;2023-08-21T03:13:00;97843.88;;;19.88;94.07
75008;BME280;63554;48.940;12.050;2023-08-21T03:17:04;97845.78;;;19.87;93.80
75008;BME280;63554;48.940;12.050;2023-08-21T03:21:07;97850.72;;;19.85;93.27
75008;BME280;63554;48.940;12.050;2023-08-21T03:25:10;97849.91;;;19.85;92.59
75008;BME280;63554;48.940;12.050;2023-08-21T03:29:12;97848.28;;;19.84;92.13
75008;BME280;63554;48.940;12.050;2023-08-21T03:33:16;97844.66;;;19.83;92.32
75008;BME280;63554;48.940;12.050;2023-08-21T03:37:19;97848.81;;;19.86;92.68
75008;BME280;63554;48.940;12.050;2023-08-21T03:41:22;97850.19;;;19.88;93.84
75008;BME280;63554;48.940;12.050;2023-08-21T03:45:25;97848.56;;;19.92;96.28
75008;BME280;63554;48.940;12.050;2023-08-21T03:49:29;97840.09;;;20.04;95.73
75008;BME280;63554;48.940;12.050;2023-08-21T03:53:31;97840.06;;;19.99;94.45
75008;BME280;63554;48.940;12.050;2023-08-21T03:57:34;97849.69;;;19.97;95.15
75008;BME280;63554;48.940;12.050;2023-08-21T04:01:37;97845.34;;;20.06;96.54
75008;BME280;63554;48.940;12.050;2023-08-21T04:05:41;97839.53;;;20.02;94.67
75008;BME280;63554;48.940;12.050;2023-08-21T04:09:44;97852.97;;;19.99;96.12
75008;BME280;63554;48.940;12.050;2023-08-21T04:13:47;97846.44;;;20.10;97.91
75008;BME280;63554;48.940;12.050;2023-08-21T04:17:50;97853.09;;;20.19;94.34
75008;BME280;63554;48.940;12.050;2023-08-21T04:21:54;97845.88;;;20.13;94.42
75008;BME280;63554;48.940;12.050;2023-08-21T04:26:00;97848.66;;;20.18;96.50
75008;BME280;63554;48.940;12.050;2023-08-21T04:30:03;97856.94;;;20.28;96.65
75008;BME280;63554;48.940;12.050;2023-08-21T04:34:07;97846.78;;;20.34;94.58
75008;BME280;63554;48.940;12.050;2023-08-21T04:38:11;97850.31;;;20.24;91.52
75008;BME280;63554;48.940;12.050;2023-08-21T04:42:13;97844.84;;;20.24;95.45
75008;BME280;63554;48.940;12.050;2023-08-21T04:46:17;97858.06;;;20.27;95.30
75008;BME280;63554;48.940;12.050;2023-08-21T04:50:21;97857.50;;;20.25;94.26
75008;BME280;63554;48.940;12.050;2023-08-21T04:54:25;97859.13;;;20.21;94.85
75008;BME280;63554;48.940;12.050;2023-08-21T04:58:28;97862.41;;;20.18;94.34
75008;BME280;63554;48.940;12.050;2023-08-21T05:02:30;97862.09;;;20.04;93.92
75008;BME280;63554;48.940;12.050;2023-08-21T05:06:33;97863.19;;;20.03;97.71
75008;BME280;63554;48.940;12.050;2023-08-21T05:10:37;97872.22;;;19.99;97.55
75008;BME280;63554;48.940;12.050;2023-08-21T05:14:40;97858.31;;;20.26;96.99
75008;BME280;63554;48.940;12.050;2023-08-21T05:18:42;97866.03;;;20.44;96.78
75008;BME280;63554;48.940;12.050;2023-08-21T05:22:46;97856.19;;;20.59;95.52
75008;BME280;63554;48.940;12.050;2023-08-21T05:26:50;97865.31;;;20.69;94.70
75008;BME280;63554;48.940;12.050;2023-08-21T05:30:53;97864.44;;;20.59;93.68
75008;BME280;63554;48.940;12.050;2023-08-21T05:34:55;97874.06;;;20.56;93.42
75008;BME280;63554;48.940;12.050;2023-08-21T05:39:01;97875.13;;;20.50;93.20
75008;BME280;63554;48.940;12.050;2023-08-21T05:43:08;97868.81;;;20.49;92.84
75008;BME280;63554;48.940;12.050;2023-08-21T05:47:11;97875.69;;;20.52;93.04
75008;BME280;63554;48.940;12.050;2023-08-21T05:51:14;97879.63;;;20.66;96.57
75008;BME280;63554;48.940;12.050;2023-08-21T05:55:17;97884.59;;;20.90;93.28
75008;BME280;63554;48.940;12.050;2023-08-21T05:59:30;97878.28;;;21.00;91.80
75008;BME280;63554;48.940;12.050;2023-08-21T06:03:33;97882.97;;;21.09;90.90
75008;BME280;63554;48.940;12.050;2023-08-21T06:07:35;97877.47;;;21.20;89.96
75008;BME280;63554;48.940;12.050;2023-08-21T06:11:38;97877.44;;;21.30;89.14
75008;BME280;63554;48.940;12.050;2023-08-21T06:15:44;97882.94;;;21.40;87.88
75008;BME280;63554;48.940;12.050;2023-08-21T06:19:47;97887.91;;;21.38;88.21
75008;BME280;63554;48.940;12.050;2023-08-21T06:23:50;97891.75;;;21.63;90.96
75008;BME280;63554;48.940;12.050;2023-08-21T06:27:53;97893.84;;;22.07;88.54
75008;BME280;63554;48.940;12.050;2023-08-21T06:32:01;97889.03;;;22.38;85.36
75008;BME280;63554;48.940;12.050;2023-08-21T06:36:04;97890.38;;;22.51;84.69
75008;BME280;63554;48.940;12.050;2023-08-21T06:40:08;97893.41;;;22.55;84.95
75008;BME280;63554;48.940;12.050;2023-08-21T06:44:12;97894.16;;;22.65;84.30
75008;BME280;63554;48.940;12.050;2023-08-21T06:48:17;97884.31;;;22.94;83.32
75008;BME280;63554;48.940;12.050;2023-08-21T06:52:20;97893.34;;;23.09;81.65
75008;BME280;63554;48.940;12.050;2023-08-21T06:56:22;97890.88;;;23.03;81.41
75008;BME280;63554;48.940;12.050;2023-08-21T07:00:25;97890.06;;;23.02;81.65
75008;BME280;63554;48.940;12.050;2023-08-21T07:04:29;97882.78;;;23.17;81.13
75008;BME280;63554;48.940;12.050;2023-08-21T07:08:34;97888.09;;;23.42;82.00
75008;BME280;63554;48.940;12.050;2023-08-21T07:12:37;97891.72;;;23.67;80.96
75008;BME280;63554;48.940;12.050;2023-08-21T07:16:40;97888.78;;;23.87;79.51
75008;BME280;63554;48.940;12.050;2023-08-21T07:20:44;97892.13;;;24.08;78.24
75008;BME280;63554;48.940;12.050;2023-08-21T07:24:49;97895.47;;;24.30;77.44
75008;BME280;63554;48.940;12.050;2023-08-21T07:28:51;97898.03;;;24.45;76.78
75008;BME280;63554;48.940;12.050;2023-08-21T07:32:54;97888.97;;;24.63;75.54
75008;BME280;63554;48.940;12.050;2023-08-21T07:36:59;97881.56;;;24.78;73.04
75008;BME280;63554;48.940;12.050;2023-08-21T07:41:03;97881.78;;;25.00;72.83
75008;BME280;63554;48.940;12.050;2023-08-21T07:45:07;97890.66;;;25.16;68.68
75008;BME280;63554;48.940;12.050;2023-08-21T07:49:10;97894.66;;;25.29;69.55
75008;BME280;63554;48.940;12.050;2023-08-21T07:53:14;97894.72;;;25.57;69.35
75008;BME280;63554;48.940;12.050;2023-08-21T07:57:17;97894.75;;;25.71;66.73
75008;BME280;63554;48.940;12.050;2023-08-21T08:01:20;97888.41;;;25.84;64.24
75008;BME280;63554;48.940;12.050;2023-08-21T08:05:22;97896.84;;;25.93;63.19
75008;BME280;63554;48.940;12.050;2023-08-21T08:09:26;97891.72;;;26.14;62.79
75008;BME280;63554;48.940;12.050;2023-08-21T08:13:29;97895.94;;;26.39;60.01
75008;BME280;63554;48.940;12.050;2023-08-21T08:17:32;97890.16;;;26.63;58.03
75008;BME280;63554;48.940;12.050;2023-08-21T08:21:35;97900.03;;;26.69;57.11
75008;BME280;63554;48.940;12.050;2023-08-21T08:25:39;97891.94;;;26.95;56.20
75008;BME280;63554;48.940;12.050;2023-08-21T08:29:42;97895.38;;;27.15;56.06
75008;BME280;63554;48.940;12.050;2023-08-21T08:33:45;97899.31;;;27.36;54.52
75008;BME280;63554;48.940;12.050;2023-08-21T08:37:49;97901.34;;;27.45;54.92
75008;BME280;63554;48.940;12.050;2023-08-21T08:41:58;97897.66;;;27.58;54.40
75008;BME280;63554;48.940;12.050;2023-08-21T08:46:02;97896.31;;;27.78;53.54
75008;BME280;63554;48.940;12.050;2023-08-21T08:50:07;97900.50;;;27.98;53.45
75008;BME280;63554;48.940;12.050;2023-08-21T08:54:11;97897.25;;;28.05;54.83
75008;BME280;63554;48.940;12.050;2023-08-21T08:58:16;97899.28;;;28.22;53.54
75008;BME280;63554;48.940;12.050;2023-08-21T09:02:19;97900.97;;;28.40;51.79
75008;BME280;63554;48.940;12.050;2023-08-21T09:06:22;97905.78;;;28.48;50.92
75008;BME280;63554;48.940;12.050;2023-08-21T09:10:25;97900.88;;;28.54;53.41
75008;BME280;63554;48.940;12.050;2023-08-21T09:14:29;97899.78;;;28.81;52.16
75008;BME280;63554;48.940;12.050;2023-08-21T09:18:34;97898.00;;;28.94;53.63
75008;BME280;63554;48.940;12.050;2023-08-21T09:22:39;97905.88;;;28.92;51.64
75008;BME280;63554;48.940;12.050;2023-08-21T09:26:42;97903.91;;;28.92;52.83
75008;BME280;63554;48.940;12.050;2023-08-21T09:30:48;97902.91;;;28.88;52.67
75008;BME280;63554;48.940;12.050;2023-08-21T09:34:51;97899.78;;;28.98;51.99
75008;BME280;63554;48.940;12.050;2023-08-21T09:38:54;97905.84;;;29.01;50.59
75008;BME280;63554;48.940;12.050;2023-08-21T09:42:57;97895.72;;;29.22;51.15
75008;BME280;63554;48.940;12.050;2023-08-21T09:47:02;97897.38;;;29.41;50.65
75008;BME280;63554;48.940;12.050;2023-08-21T09:51:05;97888.44;;;29.65;49.61
75008;BME280;63554;48.940;12.050;2023-08-21T09:55:09;97886.00;;;29.72;46.37
75008;BME280;63554;48.940;12.050;2023-08-21T09:59:12;97883.00;;;29.86;48.94
75008;BME280;63554;48.940;12.050;2023-08-21T10:03:18;97880.81;;;30.00;45.43
75008;BME280;63554;48.940;12.050;2023-08-21T10:07:25;97878.97;;;30.13;47.79
75008;BME280;63554;48.940;12.050;2023-08-21T10:11:30;97871.41;;;30.13;45.05
75008;BME280;63554;48.940;12.050;2023-08-21T10:15:34;97872.19;;;30.23;42.91
75008;BME280;63554;48.940;12.050;2023-08-21T10:19:38;97870.16;;;30.32;42.70
75008;BME280;63554;48.940;12.050;2023-08-21T10:23:41;97865.66;;;30.48;46.77
75008;BME280;63554;48.940;12.050;2023-08-21T10:27:49;97870.38;;;30.78;46.59
75008;BME280;63554;48.940;12.050;2023-08-21T10:31:58;97860.53;;;31.01;44.50
75008;BME280;63554;48.940;12.050;2023-08-21T10:36:04;97867.59;;;31.20;44.97
75008;BME280;63554;48.940;12.050;2023-08-21T10:40:22;97860.75;;;31.50;46.58
75008;BME280;63554;48.940;12.050;2023-08-21T10:44:45;97861.63;;;31.76;43.84
75008;BME280;63554;48.940;12.050;2023-08-21T10:48:50;97854.97;;;31.68;43.76
75008;BME280;63554;48.940;12.050;2023-08-21T10:52:54;97855.44;;;31.95;44.95
75008;BME280;63554;48.940;12.050;2023-08-21T10:57:01;97854.69;;;32.19;43.55
75008;BME280;63554;48.940;12.050;2023-08-21T11:01:04;97843.81;;;32.05;39.31
75008;BME280;63554;48.940;12.050;2023-08-21T11:05:08;97853.00;;;31.93;42.72
75008;BME280;63554;48.940;12.050;2023-08-21T11:09:15;97859.97;;;31.87;39.48
75008;BME280;63554;48.940;12.050;2023-08-21T11:13:18;97848.25;;;32.18;41.56
75008;BME280;63554;48.940;12.050;2023-08-21T11:17:23;97849.53;;;32.58;39.39
75008;BME280;63554;48.940;12.050;2023-08-21T11:21:26;97856.75;;;32.83;42.20
75008;BME280;63554;48.940;12.050;2023-08-21T11:25:30;97845.66;;;33.03;39.50
75008;BME280;63554;48.940;12.050;2023-08-21T11:29:35;97843.13;;;33.38;40.45
75008;BME280;63554;48.940;12.050;2023-08-21T11:33:38;97836.25;;;33.52;36.55
75008;BME280;63554;48.940;12.050;2023-08-21T11:37:43;97840.19;;;33.63;37.00
75008;BME280;63554;48.940;12.050;2023-08-21T11:41:55;97841.28;;;33.90;37.56
75008;BME280;63554;48.940;12.050;2023-08-21T11:45:58;97831.75;;;34.11;35.60
75008;BME280;63554;48.940;12.050;2023-08-21T11:50:05;97831.25;;;34.05;35.83
75008;BME280;63554;48.940;12.050;2023-08-21T11:54:08;97831.16;;;34.17;35.03
75008;BME280;63554;48.940;12.050;2023-08-21T11:58:16;97824.50;;;34.41;36.38
75008;BME280;63554;48.940;12.050;2023-08-21T12:02:23;97823.81;;;34.64;35.35
75008;BME280;63554;48.940;12.050;2023-08-21T12:06:26;97822.63;;;34.65;35.50
75008;BME280;63554;48.940;12.050;2023-08-21T12:10:33;97816.00;;;34.73;33.19
75008;BME280;63554;48.940;12.050;2023-08-21T12:14:37;97827.34;;;34.96;32.36
75008;BME280;63554;48.940;12.050;2023-08-21T12:18:41;97816.34;;;35.27;33.15
75008;BME280;63554;48.940;12.050;2023-08-21T12:22:44;97817.50;;;35.06;34.40
75008;BME280;63554;48.940;12.050;2023-08-21T12:26:46;97809.81;;;35.03;34.10
75008;BME280;63554;48.940;12.050;2023-08-21T12:30:53;97806.91;;;35.38;32.53
75008;BME280;63554;48.940;12.050;2023-08-21T12:34:55;97804.09;;;34.99;35.92
75008;BME280;63554;48.940;12.050;2023-08-21T12:38:58;97799.94;;;35.13;34.65
75008;BME280;63554;48.940;12.050;2023-08-21T12:43:01;97795.72;;;35.22;35.29
75008;BME280;63554;48.940;12.050;2023-08-21T12:47:05;97790.13;;;35.45;34.79
75008;BME280;63554;48.940;12.050;2023-08-21T12:51:08;97793.31;;;35.44;34.50
75008;BME280;63554;48.940;12.050;2023-08-21T12:55:11;97791.56;;;35.36;33.56
75008;BME280;63554;48.940;12.050;2023-08-21T12:59:15;97787.31;;;35.45;34.09
75008;BME280;63554;48.940;12.050;2023-08-21T13:03:22;97783.88;;;35.56;35.39
75008;BME280;63554;48.940;12.050;2023-08-21T13:07:27;97777.81;;;36.00;33.39
75008;BME280;63554;48.940;12.050;2023-08-21T13:11:30;97777.03;;;36.26;32.32
75008;BME280;63554;48.940;12.050;2023-08-21T13:15:33;97777.91;;;36.30;31.33
75008;BME280;63554;48.940;12.050;2023-08-21T13:19:37;97774.28;;;36.07;32.30
75008;BME280;63554;48.940;12.050;2023-08-21T13:23:39;97767.97;;;36.40;32.04
75008;BME280;63554;48.940;12.050;2023-08-21T13:27:43;97771.69;;;36.74;32.01
75008;BME280;63554;48.940;12.050;2023-08-21T13:31:46;97769.63;;;36.71;29.88
75008;BME280;63554;48.940;12.050;2023-08-21T13:35:50;97762.56;;;36.28;30.54
75008;BME280;63554;48.940;12.050;2023-08-21T13:39:52;97759.13;;;36.41;31.04
75008;BME280;63554;48.940;12.050;2023-08-21T13:43:57;97758.06;;;36.80;30.22
75008;BME280;63554;48.940;12.050;2023-08-21T13:48:00;97744.06;;;36.91;29.64
75008;BME280;63554;48.940;12.050;2023-08-21T13:52:05;97742.41;;;36.86;29.85
75008;BME280;63554;48.940;12.050;2023-08-21T13:56:08;97741.44;;;37.05;30.34
75008;BME280;63554;48.940;12.050;2023-08-21T14:00:12;97746.41;;;37.15;30.50
75008;BME280;63554;48.940;12.050;2023-08-21T14:04:14;97731.06;;;37.16;30.44
75008;BME280;63554;48.940;12.050;2023-08-21T14:08:19;97728.28;;;37.20;30.33
75008;BME280;63554;48.940;12.050;2023-08-21T14:12:22;97725.34;;;36.75;31.79
75008;BME280;63554;48.940;12.050;2023-08-21T14:16:25;97724.91;;;36.73;30.86
75008;BME280;63554;48.940;12.050;2023-08-21T14:20:28;97719.47;;;36.88;30.97
75008;BME280;63554;48.940;12.050;2023-08-21T14:24:32;97711.09;;;36.08;33.13
75008;BME280;63554;48.940;12.050;2023-08-21T14:28:34;97712.06;;;35.00;36.61
75008;BME280;63554;48.940;12.050;2023-08-21T14:32:37;97717.91;;;34.33;35.87
75008;BME280;63554;48.940;12.050;2023-08-21T14:36:40;97712.38;;;34.95;36.58
75008;BME280;63554;48.940;12.050;2023-08-21T14:40:44;97704.81;;;35.41;36.33
75008;BME280;63554;48.940;12.050;2023-08-21T14:44:46;97704.00;;;35.91;34.42
75008;BME280;63554;48.940;12.050;2023-08-21T14:48:49;97703.63;;;35.92;35.27
75008;BME280;63554;48.940;12.050;2023-08-21T14:52:52;97707.59;;;35.88;34.14
75008;BME280;63554;48.940;12.050;2023-08-21T14:56:56;97709.06;;;35.55;33.59
75008;BME280;63554;48.940;12.050;2023-08-21T15:00:59;97709.78;;;34.86;34.87
75008;BME280;63554;48.940;12.050;2023-08-21T15:05:02;97712.41;;;34.04;35.66
75008;BME280;63554;48.940;12.050;2023-08-21T15:09:06;97705.41;;;33.47;36.28
75008;BME280;63554;48.940;12.050;2023-08-21T15:13:10;97707.53;;;33.06;38.01
75008;BME280;63554;48.940;12.050;2023-08-21T15:17:13;97702.34;;;32.92;38.08
75008;BME280;63554;48.940;12.050;2023-08-21T15:21:20;97710.13;;;32.99;38.11
75008;BME280;63554;48.940;12.050;2023-08-21T15:25:23;97706.63;;;33.02;38.32
75008;BME280;63554;48.940;12.050;2023-08-21T15:29:27;97705.69;;;32.82;37.95
75008;BME280;63554;48.940;12.050;2023-08-21T15:33:30;97699.28;;;32.97;38.21
75008;BME280;63554;48.940;12.050;2023-08-21T15:37:32;97700.44;;;32.80;38.31
75008;BME280;63554;48.940;12.050;2023-08-21T15:41:35;97702.09;;;32.69;39.20
75008;BME280;63554;48.940;12.050;2023-08-21T15:45:41;97702.16;;;33.13;39.44
75008;BME280;63554;48.940;12.050;2023-08-21T15:49:46;97689.47;;;33.83;37.61
75008;BME280;63554;48.940;12.050;2023-08-21T15:53:49;97688.47;;;33.75;37.79
75008;BME280;63554;48.940;12.050;2023-08-21T15:57:52;97690.69;;;33.06;40.25
75008;BME280;63554;48.940;12.050;2023-08-21T16:01:57;97685.16;;;32.78;40.43
75008;BME280;63554;48.940;12.050;2023-08-21T16:06:00;97689.53;;;32.63;42.55
75008;BME280;63554;48.940;12.050;2023-08-21T16:10:05;97680.63;;;33.33;41.10
75008;BME280;63554;48.940;12.050;2023-08-21T16:14:08;97681.22;;;33.26;40.17
75008;BME280;63554;48.940;12.050;2023-08-21T16:18:12;97673.84;;;34.01;40.24
75008;BME280;63554;48.940;12.050;2023-08-21T16:22:15;97674.06;;;34.67;38.32
75008;BME280;63554;48.940;12.050;2023-08-21T16:26:17;97667.78;;;35.16;38.04
75008;BME280;63554;48.940;12.050;2023-08-21T16:30:20;97660.41;;;35.31;34.72
75008;BME280;63554;48.940;12.050;2023-08-21T16:34:25;97658.66;;;35.23;35.68
75008;BME280;63554;48.940;12.050;2023-08-21T16:38:27;97658.50;;;35.16;35.68
75008;BME280;63554;48.940;12.050;2023-08-21T16:42:30;97656.97;;;34.76;37.78
75008;BME280;63554;48.940;12.050;2023-08-21T16:46:34;97655.41;;;34.78;37.13
75008;BME280;63554;48.940;12.050;2023-08-21T16:50:39;97654.97;;;34.76;37.20
75008;BME280;63554;48.940;12.050;2023-08-21T16:54:41;97657.41;;;34.58;38.37
75008;BME280;63554;48.940;12.050;2023-08-21T16:58:44;97651.28;;;34.72;38.76
75008;BME280;63554;48.940;12.050;2023-08-21T17:02:47;97649.03;;;34.81;38.81
75008;BME280;63554;48.940;12.050;2023-08-21T17:06:51;97646.75;;;34.67;38.85
75008;BME280;63554;48.940;12.050;2023-08-21T17:10:53;97650.03;;;34.50;39.16
75008;BME280;63554;48.940;12.050;2023-08-21T17:14:56;97648.66;;;34.44;39.65
75008;BME280;63554;48.940;12.050;2023-08-21T17:19:03;97659.63;;;34.30;39.90
75008;BME280;63554;48.940;12.050;2023-08-21T17:23:07;97658.91;;;33.97;41.11
75008;BME280;63554;48.940;12.050;2023-08-21T17:27:09;97655.31;;;33.81;41.63
75008;BME280;63554;48.940;12.050;2023-08-21T17:31:12;97655.53;;;33.72;43.15
75008;BME280;63554;48.940;12.050;2023-08-21T17:35:15;97655.53;;;33.56;43.52
75008;BME280;63554;48.940;12.050;2023-08-21T17:39:19;97654.56;;;33.33;44.42
75008;BME280;63554;48.940;12.050;2023-08-21T17:43:21;97657.03;;;33.06;45.28
75008;BME280;63554;48.940;12.050;2023-08-21T17:47:24;97662.41;;;32.67;46.62
75008;BME280;63554;48.940;12.050;2023-08-21T17:51:27;97660.69;;;32.22;47.42
75008;BME280;63554;48.940;12.050;2023-08-21T17:55:31;97662.03;;;31.75;47.77
75008;BME280;63554;48.940;12.050;2023-08-21T17:59:34;97660.06;;;31.39;49.08
75008;BME280;63554;48.940;12.050;2023-08-21T18:03:37;97659.91;;;30.98;49.92
75008;BME280;63554;48.940;12.050;2023-08-21T18:07:40;97658.06;;;30.69;50.88
75008;BME280;63554;48.940;12.050;2023-08-21T18:11:44;97668.72;;;30.54;51.97
75008;BME280;63554;48.940;12.050;2023-08-21T18:15:48;97670.75;;;30.24;53.06
75008;BME280;63554;48.940;12.050;2023-08-21T18:19:50;97679.78;;;29.79;53.57
75008;BME280;63554;48.940;12.050;2023-08-21T18:23:53;97675.00;;;29.50;53.98
75008;BME280;63554;48.940;12.050;2023-08-21T18:27:57;97683.97;;;29.34;54.69
75008;BME280;63554;48.940;12.050;2023-08-21T18:32:00;97684.16;;;29.29;54.98
75008;BME280;63554;48.940;12.050;2023-08-21T18:36:03;97692.34;;;29.26;55.02
75008;BME280;63554;48.940;12.050;2023-08-21T18:40:07;97691.22;;;29.27;54.82
75008;BME280;63554;48.940;12.050;2023-08-21T18:44:12;97694.00;;;29.27;54.82
75008;BME280;63554;48.940;12.050;2023-08-21T18:48:14;97702.06;;;29.20;54.88
75008;BME280;63554;48.940;12.050;2023-08-21T18:52:18;97702.59;;;29.13;55.22
75008;BME280;63554;48.940;12.050;2023-08-21T18:56:20;97711.09;;;29.08;55.95
75008;BME280;63554;48.940;12.050;2023-08-21T19:00:25;97707.34;;;28.95;56.86
75008;BME280;63554;48.940;12.050;2023-08-21T19:04:30;97706.88;;;28.84;56.20
75008;BME280;63554;48.940;12.050;2023-08-21T19:08:32;97714.44;;;28.75;56.54
75008;BME280;63554;48.940;12.050;2023-08-21T19:12:35;97705.78;;;28.59;57.20
75008;BME280;63554;48.940;12.050;2023-08-21T19:16:39;97708.38;;;28.47;56.77
75008;BME280;63554;48.940;12.050;2023-08-21T19:20:42;97719.50;;;28.38;58.24
75008;BME280;63554;48.940;12.050;2023-08-21T19:24:44;97716.06;;;28.24;57.85
75008;BME280;63554;48.940;12.050;2023-08-21T19:28:47;97716.41;;;28.13;58.48
75008;BME280;63554;48.940;12.050;2023-08-21T19:32:51;97719.50;;;28.12;58.45
75008;BME280;63554;48.940;12.050;2023-08-21T19:36:54;97715.72;;;28.08;59.12
75008;BME280;63554;48.940;12.050;2023-08-21T19:40:57;97716.88;;;27.98;59.77
75008;BME280;63554;48.940;12.050;2023-08-21T19:44:59;97720.06;;;27.83;60.24
75008;BME280;63554;48.940;12.050;2023-08-21T19:49:03;97720.03;;;27.65;60.27
75008;BME280;63554;48.940;12.050;2023-08-21T19:53:06;97723.06;;;27.46;60.86
75008;BME280;63554;48.940;12.050;2023-08-21T19:57:09;97726.59;;;27.29;61.40
75008;BME280;63554;48.940;12.050;2023-08-21T20:01:11;97723.41;;;27.13;61.65
75008;BME280;63554;48.940;12.050;2023-08-21T20:05:16;97726.38;;;26.94;62.73
75008;BME280;63554;48.940;12.050;2023-08-21T20:09:18;97719.22;;;26.71;63.66
75008;BME280;63554;48.940;12.050;2023-08-21T20:13:21;97725.13;;;26.55;64.88
75008;BME280;63554;48.940;12.050;2023-08-21T20:17:24;97732.59;;;26.32;65.68
75008;BME280;63554;48.940;12.050;2023-08-21T20:21:31;97729.09;;;26.04;67.94
75008;BME280;63554;48.940;12.050;2023-08-21T20:25:35;97732.09;;;25.94;68.82
75008;BME280;63554;48.940;12.050;2023-08-21T20:29:37;97732.47;;;25.87;69.73
75008;BME280;63554;48.940;12.050;2023-08-21T20:33:40;97731.66;;;25.87;70.29
75008;BME280;63554;48.940;12.050;2023-08-21T20:37:44;97742.53;;;25.83;69.45
75008;BME280;63554;48.940;12.050;2023-08-21T20:41:47;97734.44;;;25.73;69.60
75008;BME280;63554;48.940;12.050;2023-08-21T20:45:50;97733.84;;;25.62;69.31
75008;BME280;63554;48.940;12.050;2023-08-21T20:49:52;97729.50;;;25.56;69.88
75008;BME280;63554;48.940;12.050;2023-08-21T20:53:56;97729.63;;;25.51;69.79
75008;BME280;63554;48.940;12.050;2023-08-21T20:57:59;97727.78;;;25.46;70.32
75008;BME280;63554;48.940;12.050;2023-08-21T21:02:02;97725.94;;;25.41;70.97
75008;BME280;63554;48.940;12.050;2023-08-21T21:06:05;97725.94;;;25.41;70.73
75008;BME280;63554;48.940;12.050;2023-08-21T21:10:09;97729.94;;;25.35;70.71
75008;BME280;63554;48.940;12.050;2023-08-21T21:14:12;97723.84;;;25.19;71.57